sensor_id;sensor_type;location;lat;lon;timestamp;noise_LAeq;noise_LA_min;noise_LA_max;noise_LA01;noise_LA95
41518;Laerm;27249;48.094;-1.690;2023-12-07T00:01:00;50.79;40.89;63.33;;
41518;Laerm;27249;48.094;-1.690;2023-12-07T00:03:25;48.77;40.13;62.41;;
41518;Laerm;27249;48.094;-1.690;2023-12-07T00:05:51;43.56;41.46;50.14;;
41518;Laerm;27249;48.094;-1.690;2023-12-07T00:08:16;51.74;41.61;61.65;;
41518;Laerm;27249;48.094;-1.690;2023-12-07T00:10:41;51.22;40.89;61.67;;
41518;Laerm;27249;48.094;-1.690;2023-12-07T00:13:06;47.89;41.06;60.22;;
41518;Laerm;27249;48.094;-1.690;2023-12-07T00:15:33;48.62;40.89;61.39;;
41518;Laerm;27249;48.094;-1.690;2023-12-07T00:17:59;48.00;40.80;61.58;;
41518;Laerm;27249;48.094;-1.690;2023-12-07T00:20:25;43.49;40.80;46.57;;
41518;Laerm;27249;48.094;-1.690;2023-12-07T00:22:50;50.75;41.30;60.85;;
41518;Laerm;27249;48.094;-1.690;2023-12-07T00:25:15;46.14;41.53;57.97;;
41518;Laerm;27249;48.094;-1.690;2023-12-07T00:27:40;53.06;40.80;69.82;;
41518;Laerm;27249;48.094;-1.690;2023-12-07T00:30:06;48.33;41.14;59.34;;
41518;Laerm;27249;48.094;-1.690;2023-12-07T00:32:31;48.91;41.38;61.12;;
41518;Laerm;27249;48.094;-1.690;2023-12-07T00:34:56;50.45;40.71;67.09;;
41518;Laerm;27249;48.094;-1.690;2023-12-07T00:37:22;43.31;40.71;46.25;;
41518;Laerm;27249;48.094;-1.690;2023-12-07T00:39:47;49.85;41.30;65.72;;
41518;Laerm;27249;48.094;-1.690;2023-12-07T00:42:12;45.28;41.38;58.18;;
41518;Laerm;27249;48.094;-1.690;2023-12-07T00:44:40;46.84;40.71;57.63;;
41518;Laerm;27249;48.094;-1.690;2023-12-07T00:47:06;46.23;41.22;60.28;;
41518;Laerm;27249;48.094;-1.690;2023-12-07T00:49:31;48.63;41.75;60.25;;
41518;Laerm;27249;48.094;-1.690;2023-12-07T00:51:56;47.53;41.06;60.73;;
41518;Laerm;27249;48.094;-1.690;2023-12-07T00:54:21;46.51;40.71;60.71;;
41518;Laerm;27249;48.094;-1.690;2023-12-07T00:56:47;48.62;41.14;63.17;;
41518;Laerm;27249;48.094;-1.690;2023-12-07T00:59:12;43.77;40.79;67.50;;
41518;Laerm;27249;48.094;-1.690;2023-12-07T01:01:38;43.60;41.46;48.63;;
41518;Laerm;27249;48.094;-1.690;2023-12-07T01:04:04;43.28;40.80;46.07;;
41518;Laerm;27249;48.094;-1.690;2023-12-07T01:06:30;43.21;40.71;46.02;;
41518;Laerm;27249;48.094;-1.690;2023-12-07T01:08:55;51.52;41.06;67.71;;
41518;Laerm;27249;48.094;-1.690;2023-12-07T01:11:20;46.70;40.23;57.26;;
41518;Laerm;27249;48.094;-1.690;2023-12-07T01:13:45;49.16;40.53;61.67;;
41518;Laerm;27249;48.094;-1.690;2023-12-07T01:16:11;48.95;41.46;60.24;;
41518;Laerm;27249;48.094;-1.690;2023-12-07T01:18:36;46.11;41.61;55.58;;
41518;Laerm;27249;48.094;-1.690;2023-12-07T01:21:02;49.13;41.75;63.24;;
41518;Laerm;27249;48.094;-1.690;2023-12-07T01:23:27;45.96;41.06;59.87;;
41518;Laerm;27249;48.094;-1.690;2023-12-07T01:25:52;49.95;41.30;65.65;;
41518;Laerm;27249;48.094;-1.690;2023-12-07T01:28:18;46.38;40.89;57.44;;
41518;Laerm;27249;48.094;-1.690;2023-12-07T01:30:43;44.97;41.30;55.67;;
41518;Laerm;27249;48.094;-1.690;2023-12-07T01:33:08;45.82;41.30;56.24;;
41518;Laerm;27249;48.094;-1.690;2023-12-07T01:35:34;47.03;41.30;57.97;;
41518;Laerm;27249;48.094;-1.690;2023-12-07T01:37:59;45.96;40.88;58.46;;
41518;Laerm;27249;48.094;-1.690;2023-12-07T01:40:24;48.55;41.06;65.67;;
41518;Laerm;27249;48.094;-1.690;2023-12-07T01:42:50;47.28;41.53;61.70;;
41518;Laerm;27249;48.094;-1.690;2023-12-07T01:45:16;47.24;41.06;59.73;;
41518;Laerm;27249;48.094;-1.690;2023-12-07T01:47:41;47.58;41.06;63.71;;
41518;Laerm;27249;48.094;-1.690;2023-12-07T01:50:06;45.92;42.03;56.78;;
41518;Laerm;27249;48.094;-1.690;2023-12-07T01:52:33;53.91;41.30;71.62;;
41518;Laerm;27249;48.094;-1.690;2023-12-07T01:54:59;48.38;41.06;62.35;;
41518;Laerm;27249;48.094;-1.690;2023-12-07T01:57:24;43.27;40.53;45.80;;
41518;Laerm;27249;48.094;-1.690;2023-12-07T01:59:50;49.11;40.89;60.68;;
41518;Laerm;27249;48.094;-1.690;2023-12-07T02:02:15;46.64;41.46;60.49;;
41518;Laerm;27249;48.094;-1.690;2023-12-07T02:04:40;43.14;40.62;45.48;;
41518;Laerm;27249;48.094;-1.690;2023-12-07T02:07:06;48.03;40.62;61.38;;
41518;Laerm;27249;48.094;-1.690;2023-12-07T02:09:31;50.36;40.03;67.58;;
41518;Laerm;27249;48.094;-1.690;2023-12-07T02:11:57;46.62;40.80;57.74;;
41518;Laerm;27249;48.094;-1.690;2023-12-07T02:14:23;48.68;42.00;58.98;;
41518;Laerm;27249;48.094;-1.690;2023-12-07T02:16:50;43.51;41.22;47.81;;
41518;Laerm;27249;48.094;-1.690;2023-12-07T02:22:03;49.78;41.53;65.64;;
41518;Laerm;27249;48.094;-1.690;2023-12-07T02:24:29;43.49;40.80;46.07;;
41518;Laerm;27249;48.094;-1.690;2023-12-07T02:26:58;48.38;40.71;61.38;;
41518;Laerm;27249;48.094;-1.690;2023-12-07T02:29:23;46.04;41.33;58.44;;
41518;Laerm;27249;48.094;-1.690;2023-12-07T02:31:49;43.31;40.80;49.00;;
41518;Laerm;27249;48.094;-1.690;2023-12-07T02:34:14;51.18;40.80;64.53;;
41518;Laerm;27249;48.094;-1.690;2023-12-07T02:36:39;43.87;41.30;52.29;;
41518;Laerm;27249;48.094;-1.690;2023-12-07T02:39:06;48.77;41.38;61.08;;
41518;Laerm;27249;48.094;-1.690;2023-12-07T02:41:32;46.21;41.89;63.76;;
41518;Laerm;27249;48.094;-1.690;2023-12-07T02:43:57;50.38;41.22;62.35;;
41518;Laerm;27249;48.094;-1.690;2023-12-07T02:46:26;44.95;41.30;56.50;;
41518;Laerm;27249;48.094;-1.690;2023-12-07T02:48:51;45.88;41.14;59.41;;
41518;Laerm;27249;48.094;-1.690;2023-12-07T02:51:16;45.21;40.71;58.87;;
41518;Laerm;27249;48.094;-1.690;2023-12-07T02:53:42;43.52;41.14;46.59;;
41518;Laerm;27249;48.094;-1.690;2023-12-07T02:56:07;43.44;40.98;46.78;;
41518;Laerm;27249;48.094;-1.690;2023-12-07T02:58:33;43.46;41.30;46.71;;
41518;Laerm;27249;48.094;-1.690;2023-12-07T03:00:58;43.49;41.06;49.91;;
41518;Laerm;27249;48.094;-1.690;2023-12-07T03:03:24;43.18;40.62;45.89;;
41518;Laerm;27249;48.094;-1.690;2023-12-07T03:05:49;43.70;41.06;47.86;;
41518;Laerm;27249;48.094;-1.690;2023-12-07T03:08:14;44.25;41.22;50.63;;
41518;Laerm;27249;48.094;-1.690;2023-12-07T03:10:39;49.97;41.22;65.13;;
41518;Laerm;27249;48.094;-1.690;2023-12-07T03:13:05;45.75;41.89;57.09;;
41518;Laerm;27249;48.094;-1.690;2023-12-07T03:15:30;48.66;41.26;62.88;;
41518;Laerm;27249;48.094;-1.690;2023-12-07T03:17:55;45.49;41.22;56.54;;
41518;Laerm;27249;48.094;-1.690;2023-12-07T03:20:20;47.19;41.06;60.80;;
41518;Laerm;27249;48.094;-1.690;2023-12-07T03:22:46;52.01;40.98;63.76;;
41518;Laerm;27249;48.094;-1.690;2023-12-07T03:25:11;51.26;41.03;67.51;;
41518;Laerm;27249;48.094;-1.690;2023-12-07T03:27:36;45.30;41.06;55.48;;
41518;Laerm;27249;48.094;-1.690;2023-12-07T03:30:02;44.91;41.06;54.17;;
41518;Laerm;27249;48.094;-1.690;2023-12-07T03:32:28;50.14;41.68;62.35;;
41518;Laerm;27249;48.094;-1.690;2023-12-07T03:34:53;49.23;41.46;60.36;;
41518;Laerm;27249;48.094;-1.690;2023-12-07T03:37:18;49.11;41.75;62.12;;
41518;Laerm;27249;48.094;-1.690;2023-12-07T03:39:43;50.17;41.96;64.66;;
41518;Laerm;27249;48.094;-1.690;2023-12-07T03:42:08;51.44;41.68;63.57;;
41518;Laerm;27249;48.094;-1.690;2023-12-07T03:44:34;49.72;42.09;62.94;;
41518;Laerm;27249;48.094;-1.690;2023-12-07T03:47:00;52.65;42.71;61.78;;
41518;Laerm;27249;48.094;-1.690;2023-12-07T03:49:26;47.87;41.89;59.88;;
41518;Laerm;27249;48.094;-1.690;2023-12-07T03:51:52;53.36;42.88;64.76;;
41518;Laerm;27249;48.094;-1.690;2023-12-07T03:54:17;48.83;42.29;60.91;;
41518;Laerm;27249;48.094;-1.690;2023-12-07T03:56:42;44.80;41.46;58.01;;
41518;Laerm;27249;48.094;-1.690;2023-12-07T03:59:08;50.69;41.75;60.36;;
41518;Laerm;27249;48.094;-1.690;2023-12-07T04:01:33;50.62;42.03;62.45;;
41518;Laerm;27249;48.094;-1.690;2023-12-07T04:03:58;45.92;41.68;54.65;;
41518;Laerm;27249;48.094;-1.690;2023-12-07T04:06:28;49.06;42.53;60.49;;
41518;Laerm;27249;48.094;-1.690;2023-12-07T04:08:53;51.45;42.16;67.17;;
41518;Laerm;27249;48.094;-1.690;2023-12-07T04:11:18;43.87;40.71;46.23;;
41518;Laerm;27249;48.094;-1.690;2023-12-07T04:13:44;48.70;41.14;60.95;;
41518;Laerm;27249;48.094;-1.690;2023-12-07T04:16:10;50.00;41.89;62.11;;
41518;Laerm;27249;48.094;-1.690;2023-12-07T04:18:36;49.69;41.82;61.65;;
41518;Laerm;27249;48.094;-1.690;2023-12-07T04:21:03;51.50;41.96;61.29;;
41518;Laerm;27249;48.094;-1.690;2023-12-07T04:23:32;51.21;42.59;64.11;;
41518;Laerm;27249;48.094;-1.690;2023-12-07T04:25:57;51.16;42.82;63.56;;
41518;Laerm;27249;48.094;-1.690;2023-12-07T04:28:22;49.75;42.53;62.34;;
41518;Laerm;27249;48.094;-1.690;2023-12-07T04:30:48;49.86;42.35;63.40;;
41518;Laerm;27249;48.094;-1.690;2023-12-07T04:33:13;47.86;42.22;60.29;;
41518;Laerm;27249;48.094;-1.690;2023-12-07T04:35:38;51.84;43.24;61.85;;
41518;Laerm;27249;48.094;-1.690;2023-12-07T04:38:03;51.60;42.95;62.74;;
41518;Laerm;27249;48.094;-1.690;2023-12-07T04:40:29;49.88;43.39;59.57;;
41518;Laerm;27249;48.094;-1.690;2023-12-07T04:42:55;53.54;42.47;69.63;;
41518;Laerm;27249;48.094;-1.690;2023-12-07T04:45:20;50.65;42.76;63.75;;
41518;Laerm;27249;48.094;-1.690;2023-12-07T04:47:45;49.85;42.74;61.09;;
41518;Laerm;27249;48.094;-1.690;2023-12-07T04:50:10;50.96;43.68;60.59;;
41518;Laerm;27249;48.094;-1.690;2023-12-07T04:52:36;49.88;43.14;67.45;;
41518;Laerm;27249;48.094;-1.690;2023-12-07T04:55:01;53.31;44.80;62.56;;
41518;Laerm;27249;48.094;-1.690;2023-12-07T04:57:27;55.03;43.72;68.72;;
41518;Laerm;27249;48.094;-1.690;2023-12-07T04:59:52;51.30;42.76;63.50;;
41518;Laerm;27249;48.094;-1.690;2023-12-07T05:02:18;54.94;43.86;65.33;;
41518;Laerm;27249;48.094;-1.690;2023-12-07T05:04:43;54.47;44.07;64.77;;
41518;Laerm;27249;48.094;-1.690;2023-12-07T05:07:10;52.49;43.63;62.05;;
41518;Laerm;27249;48.094;-1.690;2023-12-07T05:09:35;52.07;43.86;62.63;;
41518;Laerm;27249;48.094;-1.690;2023-12-07T05:12:00;51.58;43.90;62.57;;
41518;Laerm;27249;48.094;-1.690;2023-12-07T05:14:25;54.32;44.43;65.27;;
41518;Laerm;27249;48.094;-1.690;2023-12-07T05:16:53;52.11;43.68;64.20;;
41518;Laerm;27249;48.094;-1.690;2023-12-07T05:19:19;55.99;46.28;64.87;;
41518;Laerm;27249;48.094;-1.690;2023-12-07T05:21:45;52.36;43.72;63.60;;
41518;Laerm;27249;48.094;-1.690;2023-12-07T05:24:11;56.13;44.19;66.57;;
41518;Laerm;27249;48.094;-1.690;2023-12-07T05:26:37;52.96;43.49;69.77;;
41518;Laerm;27249;48.094;-1.690;2023-12-07T05:29:02;54.98;46.13;65.83;;
41518;Laerm;27249;48.094;-1.690;2023-12-07T05:31:27;56.44;46.30;63.34;;
41518;Laerm;27249;48.094;-1.690;2023-12-07T05:33:52;57.04;48.54;67.82;;
41518;Laerm;27249;48.094;-1.690;2023-12-07T05:36:17;56.92;47.07;67.25;;
41518;Laerm;27249;48.094;-1.690;2023-12-07T05:38:43;54.04;46.25;62.34;;
41518;Laerm;27249;48.094;-1.690;2023-12-07T05:41:08;55.51;45.75;67.06;;
41518;Laerm;27249;48.094;-1.690;2023-12-07T05:43:34;55.65;46.15;65.16;;
41518;Laerm;27249;48.094;-1.690;2023-12-07T05:45:59;57.35;46.40;68.23;;
41518;Laerm;27249;48.094;-1.690;2023-12-07T05:48:25;57.02;47.72;66.20;;
41518;Laerm;27249;48.094;-1.690;2023-12-07T05:50:50;58.52;46.18;74.36;;
41518;Laerm;27249;48.094;-1.690;2023-12-07T05:53:15;57.98;49.58;66.12;;
41518;Laerm;27249;48.094;-1.690;2023-12-07T05:55:41;57.81;45.83;66.62;;
41518;Laerm;27249;48.094;-1.690;2023-12-07T05:58:06;58.87;51.03;66.75;;
41518;Laerm;27249;48.094;-1.690;2023-12-07T06:00:31;58.60;49.14;66.08;;
41518;Laerm;27249;48.094;-1.690;2023-12-07T06:02:56;59.15;50.48;66.74;;
41518;Laerm;27249;48.094;-1.690;2023-12-07T06:05:21;56.32;47.36;64.20;;
41518;Laerm;27249;48.094;-1.690;2023-12-07T06:07:48;59.56;50.40;68.43;;
41518;Laerm;27249;48.094;-1.690;2023-12-07T06:10:13;59.31;48.42;66.11;;
41518;Laerm;27249;48.094;-1.690;2023-12-07T06:12:38;59.69;49.51;66.75;;
41518;Laerm;27249;48.094;-1.690;2023-12-07T06:15:04;59.61;49.40;76.35;;
41518;Laerm;27249;48.094;-1.690;2023-12-07T06:17:31;56.93;47.70;65.25;;
41518;Laerm;27249;48.094;-1.690;2023-12-07T06:19:58;59.86;50.20;69.07;;
41518;Laerm;27249;48.094;-1.690;2023-12-07T06:22:23;60.29;51.82;66.51;;
41518;Laerm;27249;48.094;-1.690;2023-12-07T06:24:48;59.43;48.69;66.39;;
41518;Laerm;27249;48.094;-1.690;2023-12-07T06:27:14;58.19;49.67;63.85;;
41518;Laerm;27249;48.094;-1.690;2023-12-07T06:29:40;59.89;51.01;66.68;;
41518;Laerm;27249;48.094;-1.690;2023-12-07T06:32:05;60.48;50.51;68.55;;
41518;Laerm;27249;48.094;-1.690;2023-12-07T06:34:30;60.59;53.28;66.45;;
41518;Laerm;27249;48.094;-1.690;2023-12-07T06:36:55;59.25;50.15;66.37;;
41518;Laerm;27249;48.094;-1.690;2023-12-07T06:39:21;60.33;54.91;64.87;;
41518;Laerm;27249;48.094;-1.690;2023-12-07T06:41:46;60.29;53.60;64.76;;
41518;Laerm;27249;48.094;-1.690;2023-12-07T06:44:11;59.88;52.00;66.94;;
41518;Laerm;27249;48.094;-1.690;2023-12-07T06:46:36;61.10;54.42;70.96;;
41518;Laerm;27249;48.094;-1.690;2023-12-07T06:49:02;60.99;54.76;67.61;;
41518;Laerm;27249;48.094;-1.690;2023-12-07T06:51:28;61.43;55.06;68.06;;
41518;Laerm;27249;48.094;-1.690;2023-12-07T06:53:54;59.59;52.82;66.46;;
41518;Laerm;27249;48.094;-1.690;2023-12-07T06:56:19;60.51;52.64;66.47;;
41518;Laerm;27249;48.094;-1.690;2023-12-07T06:58:44;60.73;55.81;65.08;;
41518;Laerm;27249;48.094;-1.690;2023-12-07T07:01:09;59.62;53.73;64.85;;
41518;Laerm;27249;48.094;-1.690;2023-12-07T07:03:35;61.68;55.96;70.55;;
41518;Laerm;27249;48.094;-1.690;2023-12-07T07:06:00;61.17;56.29;70.28;;
41518;Laerm;27249;48.094;-1.690;2023-12-07T07:08:26;60.34;56.16;71.80;;
41518;Laerm;27249;48.094;-1.690;2023-12-07T07:10:51;61.63;56.10;68.04;;
41518;Laerm;27249;48.094;-1.690;2023-12-07T07:13:16;60.11;55.31;64.07;;
41518;Laerm;27249;48.094;-1.690;2023-12-07T07:15:42;61.27;56.18;67.79;;
41518;Laerm;27249;48.094;-1.690;2023-12-07T07:18:11;61.75;56.40;73.04;;
41518;Laerm;27249;48.094;-1.690;2023-12-07T07:20:36;60.51;55.47;65.40;;
41518;Laerm;27249;48.094;-1.690;2023-12-07T07:23:01;60.74;54.96;66.43;;
41518;Laerm;27249;48.094;-1.690;2023-12-07T07:25:27;59.82;55.45;66.58;;
41518;Laerm;27249;48.094;-1.690;2023-12-07T07:27:52;59.29;54.23;64.34;;
41518;Laerm;27249;48.094;-1.690;2023-12-07T07:30:19;59.31;54.36;64.51;;
41518;Laerm;27249;48.094;-1.690;2023-12-07T07:32:44;60.03;55.33;65.75;;
41518;Laerm;27249;48.094;-1.690;2023-12-07T07:35:09;60.36;54.64;71.54;;
41518;Laerm;27249;48.094;-1.690;2023-12-07T07:37:37;61.50;54.12;83.31;;
41518;Laerm;27249;48.094;-1.690;2023-12-07T07:40:02;59.72;52.81;65.24;;
41518;Laerm;27249;48.094;-1.690;2023-12-07T07:42:31;60.15;51.67;67.76;;
41518;Laerm;27249;48.094;-1.690;2023-12-07T07:44:56;61.14;56.63;67.45;;
41518;Laerm;27249;48.094;-1.690;2023-12-07T07:47:22;60.99;54.48;70.01;;
41518;Laerm;27249;48.094;-1.690;2023-12-07T07:49:47;61.99;56.71;74.78;;
41518;Laerm;27249;48.094;-1.690;2023-12-07T07:52:12;62.53;56.62;83.70;;
41518;Laerm;27249;48.094;-1.690;2023-12-07T07:54:37;61.65;54.44;70.05;;
41518;Laerm;27249;48.094;-1.690;2023-12-07T07:57:03;61.91;56.13;67.36;;
41518;Laerm;27249;48.094;-1.690;2023-12-07T07:59:29;62.19;56.85;67.80;;
41518;Laerm;27249;48.094;-1.690;2023-12-07T08:01:56;61.59;56.10;67.82;;
41518;Laerm;27249;48.094;-1.690;2023-12-07T08:04:21;62.20;57.01;66.73;;
41518;Laerm;27249;48.094;-1.690;2023-12-07T08:06:46;62.37;55.51;67.62;;
41518;Laerm;27249;48.094;-1.690;2023-12-07T08:09:12;62.99;56.51;70.33;;
41518;Laerm;27249;48.094;-1.690;2023-12-07T08:11:37;62.48;54.71;68.72;;
41518;Laerm;27249;48.094;-1.690;2023-12-07T08:14:03;62.54;57.39;69.07;;
41518;Laerm;27249;48.094;-1.690;2023-12-07T08:16:28;61.58;56.09;67.68;;
41518;Laerm;27249;48.094;-1.690;2023-12-07T08:18:53;62.06;55.73;72.41;;
41518;Laerm;27249;48.094;-1.690;2023-12-07T08:21:22;63.24;55.22;73.35;;
41518;Laerm;27249;48.094;-1.690;2023-12-07T08:23:48;60.55;52.46;67.12;;
41518;Laerm;27249;48.094;-1.690;2023-12-07T08:26:13;58.60;49.41;67.78;;
41518;Laerm;27249;48.094;-1.690;2023-12-07T08:28:39;58.34;49.77;65.51;;
41518;Laerm;27249;48.094;-1.690;2023-12-07T08:31:04;60.39;53.69;68.91;;
41518;Laerm;27249;48.094;-1.690;2023-12-07T08:33:30;60.72;53.95;70.85;;
41518;Laerm;27249;48.094;-1.690;2023-12-07T08:35:55;59.58;52.53;65.05;;
41518;Laerm;27249;48.094;-1.690;2023-12-07T08:38:21;59.32;53.43;65.06;;
41518;Laerm;27249;48.094;-1.690;2023-12-07T08:40:47;60.78;51.97;66.46;;
41518;Laerm;27249;48.094;-1.690;2023-12-07T08:43:12;59.79;51.50;65.51;;
41518;Laerm;27249;48.094;-1.690;2023-12-07T08:45:38;60.95;54.66;67.58;;
41518;Laerm;27249;48.094;-1.690;2023-12-07T08:48:03;59.71;53.67;66.08;;
41518;Laerm;27249;48.094;-1.690;2023-12-07T08:50:29;59.85;54.38;65.16;;
41518;Laerm;27249;48.094;-1.690;2023-12-07T08:52:54;60.44;52.68;71.98;;
41518;Laerm;27249;48.094;-1.690;2023-12-07T08:55:20;60.05;52.81;66.48;;
41518;Laerm;27249;48.094;-1.690;2023-12-07T08:57:45;60.33;54.88;66.17;;
41518;Laerm;27249;48.094;-1.690;2023-12-07T09:00:10;61.54;51.84;69.74;;
41518;Laerm;27249;48.094;-1.690;2023-12-07T09:02:40;59.79;51.27;66.60;;
41518;Laerm;27249;48.094;-1.690;2023-12-07T09:05:05;61.16;52.11;74.05;;
41518;Laerm;27249;48.094;-1.690;2023-12-07T09:07:30;59.40;52.16;64.61;;
41518;Laerm;27249;48.094;-1.690;2023-12-07T09:09:55;60.06;54.60;65.32;;
41518;Laerm;27249;48.094;-1.690;2023-12-07T09:12:21;62.03;57.55;67.39;;
41518;Laerm;27249;48.094;-1.690;2023-12-07T09:14:46;61.36;55.28;68.59;;
41518;Laerm;27249;48.094;-1.690;2023-12-07T09:17:12;60.95;54.52;66.18;;
41518;Laerm;27249;48.094;-1.690;2023-12-07T09:19:37;59.69;54.73;65.00;;
41518;Laerm;27249;48.094;-1.690;2023-12-07T09:22:02;60.84;54.63;65.87;;
41518;Laerm;27249;48.094;-1.690;2023-12-07T09:24:27;60.72;53.58;65.86;;
41518;Laerm;27249;48.094;-1.690;2023-12-07T09:26:53;60.10;54.63;67.53;;
41518;Laerm;27249;48.094;-1.690;2023-12-07T09:29:18;60.15;51.47;65.62;;
41518;Laerm;27249;48.094;-1.690;2023-12-07T09:31:43;61.26;55.85;67.49;;
41518;Laerm;27249;48.094;-1.690;2023-12-07T09:34:08;62.69;58.51;69.54;;
41518;Laerm;27249;48.094;-1.690;2023-12-07T09:36:34;61.99;56.91;71.14;;
41518;Laerm;27249;48.094;-1.690;2023-12-07T09:38:59;62.66;57.53;68.83;;
41518;Laerm;27249;48.094;-1.690;2023-12-07T09:41:24;60.51;54.29;70.74;;
41518;Laerm;27249;48.094;-1.690;2023-12-07T09:43:51;60.39;54.20;66.48;;
41518;Laerm;27249;48.094;-1.690;2023-12-07T09:46:16;60.80;55.85;65.86;;
41518;Laerm;27249;48.094;-1.690;2023-12-07T09:48:42;62.93;56.42;68.63;;
41518;Laerm;27249;48.094;-1.690;2023-12-07T09:51:09;60.65;55.16;67.09;;
41518;Laerm;27249;48.094;-1.690;2023-12-07T09:53:36;62.57;58.22;67.73;;
41518;Laerm;27249;48.094;-1.690;2023-12-07T09:56:03;62.83;57.57;67.65;;
41518;Laerm;27249;48.094;-1.690;2023-12-07T09:58:28;63.33;58.49;68.94;;
41518;Laerm;27249;48.094;-1.690;2023-12-07T10:00:53;62.06;56.94;66.91;;
41518;Laerm;27249;48.094;-1.690;2023-12-07T10:03:21;61.21;56.41;65.83;;
41518;Laerm;27249;48.094;-1.690;2023-12-07T10:05:57;62.54;57.46;68.70;;
41518;Laerm;27249;48.094;-1.690;2023-12-07T10:08:26;61.71;54.47;66.17;;
41518;Laerm;27249;48.094;-1.690;2023-12-07T10:11:05;61.64;56.48;67.49;;
41518;Laerm;27249;48.094;-1.690;2023-12-07T10:13:31;62.24;57.27;66.96;;
41518;Laerm;27249;48.094;-1.690;2023-12-07T10:16:09;61.83;54.97;67.66;;
41518;Laerm;27249;48.094;-1.690;2023-12-07T10:18:35;62.87;57.50;67.89;;
41518;Laerm;27249;48.094;-1.690;2023-12-07T10:21:00;62.30;56.98;67.88;;
41518;Laerm;27249;48.094;-1.690;2023-12-07T10:23:26;61.97;56.46;67.89;;
41518;Laerm;27249;48.094;-1.690;2023-12-07T10:25:52;62.03;56.12;72.47;;
41518;Laerm;27249;48.094;-1.690;2023-12-07T10:28:17;62.58;56.13;70.83;;
41518;Laerm;27249;48.094;-1.690;2023-12-07T10:30:44;63.08;55.03;69.79;;
41518;Laerm;27249;48.094;-1.690;2023-12-07T10:33:10;59.96;53.49;69.10;;
41518;Laerm;27249;48.094;-1.690;2023-12-07T10:35:41;59.75;54.31;68.77;;
41518;Laerm;27249;48.094;-1.690;2023-12-07T10:38:07;62.28;56.11;69.65;;
41518;Laerm;27249;48.094;-1.690;2023-12-07T10:40:32;62.32;56.07;67.20;;
41518;Laerm;27249;48.094;-1.690;2023-12-07T10:42:58;62.28;55.80;67.21;;
41518;Laerm;27249;48.094;-1.690;2023-12-07T10:45:27;61.27;56.76;67.01;;
41518;Laerm;27249;48.094;-1.690;2023-12-07T10:47:54;64.52;57.75;73.20;;
41518;Laerm;27249;48.094;-1.690;2023-12-07T10:50:25;61.14;53.08;67.52;;
41518;Laerm;27249;48.094;-1.690;2023-12-07T10:52:52;59.52;53.15;67.35;;
41518;Laerm;27249;48.094;-1.690;2023-12-07T10:55:24;60.51;54.84;65.57;;
41518;Laerm;27249;48.094;-1.690;2023-12-07T10:57:53;60.95;54.62;65.91;;
41518;Laerm;27249;48.094;-1.690;2023-12-07T11:00:20;61.05;55.59;70.57;;
41518;Laerm;27249;48.094;-1.690;2023-12-07T11:02:49;60.27;50.92;67.60;;
41518;Laerm;27249;48.094;-1.690;2023-12-07T11:05:17;59.85;53.59;66.26;;
41518;Laerm;27249;48.094;-1.690;2023-12-07T11:08:05;60.13;52.84;65.91;;
41518;Laerm;27249;48.094;-1.690;2023-12-07T11:10:33;60.31;54.89;69.83;;
41518;Laerm;27249;48.094;-1.690;2023-12-07T11:15:45;59.69;53.34;73.73;;
41518;Laerm;27249;48.094;-1.690;2023-12-07T11:18:10;59.02;51.75;65.25;;
41518;Laerm;27249;48.094;-1.690;2023-12-07T11:20:41;60.28;54.77;65.93;;
41518;Laerm;27249;48.094;-1.690;2023-12-07T11:23:09;59.24;52.56;71.23;;
41518;Laerm;27249;48.094;-1.690;2023-12-07T11:25:35;60.62;55.97;65.63;;
41518;Laerm;27249;48.094;-1.690;2023-12-07T11:28:04;59.21;53.11;65.73;;
41518;Laerm;27249;48.094;-1.690;2023-12-07T11:30:31;60.49;55.69;67.98;;
41518;Laerm;27249;48.094;-1.690;2023-12-07T11:32:57;59.31;51.65;68.20;;
41518;Laerm;27249;48.094;-1.690;2023-12-07T11:35:22;59.87;53.28;65.34;;
41518;Laerm;27249;48.094;-1.690;2023-12-07T11:38:00;60.56;53.08;70.19;;
41518;Laerm;27249;48.094;-1.690;2023-12-07T11:40:27;59.01;53.01;65.09;;
41518;Laerm;27249;48.094;-1.690;2023-12-07T11:42:52;60.56;52.81;72.78;;
41518;Laerm;27249;48.094;-1.690;2023-12-07T11:45:35;58.32;48.74;63.54;;
41518;Laerm;27249;48.094;-1.690;2023-12-07T11:48:07;59.89;53.93;69.10;;
41518;Laerm;27249;48.094;-1.690;2023-12-07T11:50:33;60.08;54.38;69.55;;
41518;Laerm;27249;48.094;-1.690;2023-12-07T11:52:59;59.42;52.45;65.07;;
41518;Laerm;27249;48.094;-1.690;2023-12-07T11:55:24;63.97;51.47;87.40;;
41518;Laerm;27249;48.094;-1.690;2023-12-07T11:57:49;59.96;50.60;77.95;;
41518;Laerm;27249;48.094;-1.690;2023-12-07T12:00:15;59.42;50.98;64.82;;
41518;Laerm;27249;48.094;-1.690;2023-12-07T12:02:40;59.05;53.22;63.75;;
41518;Laerm;27249;48.094;-1.690;2023-12-07T12:05:05;58.32;50.39;65.88;;
41518;Laerm;27249;48.094;-1.690;2023-12-07T12:07:31;60.12;52.82;67.28;;
41518;Laerm;27249;48.094;-1.690;2023-12-07T12:09:56;60.92;55.53;67.83;;
41518;Laerm;27249;48.094;-1.690;2023-12-07T12:12:21;59.61;51.15;71.10;;
41518;Laerm;27249;48.094;-1.690;2023-12-07T12:14:46;59.39;53.18;64.18;;
41518;Laerm;27249;48.094;-1.690;2023-12-07T12:17:14;59.45;50.62;65.94;;
41518;Laerm;27249;48.094;-1.690;2023-12-07T12:19:39;63.74;55.94;76.83;;
41518;Laerm;27249;48.094;-1.690;2023-12-07T12:22:05;59.71;53.70;68.36;;
41518;Laerm;27249;48.094;-1.690;2023-12-07T12:24:31;58.53;50.83;66.21;;
41518;Laerm;27249;48.094;-1.690;2023-12-07T12:26:56;60.30;53.15;67.31;;
41518;Laerm;27249;48.094;-1.690;2023-12-07T12:29:22;60.02;54.09;65.14;;
41518;Laerm;27249;48.094;-1.690;2023-12-07T12:31:47;60.40;52.13;65.80;;
41518;Laerm;27249;48.094;-1.690;2023-12-07T12:34:13;60.81;55.41;65.66;;
41518;Laerm;27249;48.094;-1.690;2023-12-07T12:36:38;59.67;50.93;66.46;;
41518;Laerm;27249;48.094;-1.690;2023-12-07T12:39:03;60.49;52.17;67.69;;
41518;Laerm;27249;48.094;-1.690;2023-12-07T12:41:33;60.37;51.46;66.36;;
41518;Laerm;27249;48.094;-1.690;2023-12-07T12:43:58;61.70;51.30;72.92;;
41518;Laerm;27249;48.094;-1.690;2023-12-07T12:46:24;61.28;52.55;75.72;;
41518;Laerm;27249;48.094;-1.690;2023-12-07T12:48:53;61.09;54.78;66.09;;
41518;Laerm;27249;48.094;-1.690;2023-12-07T12:51:19;60.70;53.70;66.56;;
41518;Laerm;27249;48.094;-1.690;2023-12-07T12:53:45;60.94;51.63;83.13;;
41518;Laerm;27249;48.094;-1.690;2023-12-07T12:56:11;60.38;49.70;72.67;;
41518;Laerm;27249;48.094;-1.690;2023-12-07T12:58:37;59.93;53.79;67.11;;
41518;Laerm;27249;48.094;-1.690;2023-12-07T13:01:02;60.86;53.62;69.69;;
41518;Laerm;27249;48.094;-1.690;2023-12-07T13:03:28;60.57;52.19;65.88;;
41518;Laerm;27249;48.094;-1.690;2023-12-07T13:05:54;59.66;51.00;76.33;;
41518;Laerm;27249;48.094;-1.690;2023-12-07T13:08:19;60.40;51.01;66.93;;
41518;Laerm;27249;48.094;-1.690;2023-12-07T13:10:44;61.34;54.34;69.42;;
41518;Laerm;27249;48.094;-1.690;2023-12-07T13:13:09;60.82;54.23;66.51;;
41518;Laerm;27249;48.094;-1.690;2023-12-07T13:15:35;61.27;55.52;66.76;;
41518;Laerm;27249;48.094;-1.690;2023-12-07T13:18:00;61.59;56.65;69.56;;
41518;Laerm;27249;48.094;-1.690;2023-12-07T13:20:25;61.06;52.91;68.15;;
41518;Laerm;27249;48.094;-1.690;2023-12-07T13:22:50;61.20;52.57;81.59;;
41518;Laerm;27249;48.094;-1.690;2023-12-07T13:25:16;59.70;53.28;64.18;;
41518;Laerm;27249;48.094;-1.690;2023-12-07T13:27:41;60.59;49.52;67.63;;
41518;Laerm;27249;48.094;-1.690;2023-12-07T13:30:09;60.85;50.31;67.28;;